Time;durP1;ratioP1;P1;durP2;ratioP2;P2;SDS_P1;SDS_P2;PMS_P1;PMS_P2;Temp;Humidity;BMP_temperature;BMP_pressure;BME280_temperature;BME280_humidity;BME280_pressure;Samples;Min_cycle;Max_cycle;Signal;HPM_P1;HPM_P2
2023/01/11 00:02:02;;;;;;;4.97;1.07;;;6.30;99.90;;;;;;6273284;22;20140;-82
2023/01/11 00:04:29;;;;;;;2.63;1.50;;;6.40;99.90;;;;;;6271652;22;20642;-80
2023/01/11 00:06:55;;;;;;;1.08;0.95;;;6.50;99.90;;;;;;6274537;22;20251;-82
2023/01/11 00:09:20;;;;;;;4.43;0.90;;;6.40;99.90;;;;;;6273853;22;20151;-82
2023/01/11 00:11:46;;;;;;;2.20;0.90;;;6.50;99.90;;;;;;6274104;22;20202;-82
2023/01/11 00:14:12;;;;;;;2.30;0.77;;;6.40;99.90;;;;;;6273293;22;20160;-82
2023/01/11 00:16:40;;;;;;;3.20;0.90;;;6.50;99.90;;;;;;6272378;22;20183;-76
2023/01/11 00:19:06;;;;;;;5.65;1.60;;;6.50;99.90;;;;;;6275678;22;20172;-79
2023/01/11 00:21:32;;;;;;;1.92;0.60;;;6.60;99.90;;;;;;6273777;22;20548;-81
2023/01/11 00:23:57;;;;;;;1.33;0.77;;;6.60;99.90;;;;;;6276972;22;20175;-81
2023/01/11 00:26:23;;;;;;;1.67;0.83;;;6.60;99.90;;;;;;6275583;22;20143;-79
2023/01/11 00:28:49;;;;;;;2.50;0.90;;;6.60;99.90;;;;;;6276427;22;20167;-81
2023/01/11 00:31:16;;;;;;;2.15;1.20;;;6.60;99.90;;;;;;6274676;22;20152;-80
2023/01/11 00:33:41;;;;;;;1.05;0.70;;;6.70;99.90;;;;;;6274759;22;20187;-83
2023/01/11 00:36:07;;;;;;;1.40;0.80;;;6.70;99.90;;;;;;6273224;22;20217;-83
2023/01/11 00:38:42;;;;;;;2.42;1.40;;;6.80;99.90;;;;;;6276116;22;20179;-79
2023/01/11 00:49:25;;;;;;;0.95;0.82;;;6.90;99.90;;;;;;6276045;22;20229;-81
2023/01/11 00:51:51;;;;;;;2.13;0.80;;;6.90;99.90;;;;;;6278847;22;20766;-81
2023/01/11 00:54:16;;;;;;;2.43;1.37;;;6.90;99.90;;;;;;6276617;22;20241;-81
2023/01/11 00:56:42;;;;;;;14.43;0.97;;;6.90;99.90;;;;;;6279564;22;20160;-79
2023/01/11 00:59:08;;;;;;;2.33;1.00;;;6.90;99.90;;;;;;6275928;22;20172;-80
2023/01/11 01:01:33;;;;;;;1.57;0.97;;;7.00;99.90;;;;;;6277808;22;20170;-81
2023/01/11 01:04:00;;;;;;;6.07;0.90;;;7.00;99.90;;;;;;6276784;22;20754;-81
2023/01/11 01:06:26;;;;;;;3.05;1.02;;;7.00;99.90;;;;;;6279320;22;20147;-83
2023/01/11 01:08:51;;;;;;;7.03;1.25;;;7.10;99.90;;;;;;6279140;22;20172;-79
2023/01/11 01:11:17;;;;;;;2.97;0.90;;;7.10;99.90;;;;;;6276731;22;20148;-82
2023/01/11 01:14:25;;;;;;;3.10;0.70;;;7.10;99.90;;;;;;6278560;22;20209;-79
2023/01/11 01:16:31;;;;;;;3.40;1.15;;;7.00;99.90;;;;;;6265117;22;20163;-81
2023/01/11 01:18:57;;;;;;;4.07;1.00;;;7.10;99.90;;;;;;6276006;22;20172;-81
2023/01/11 01:21:25;;;;;;;0.70;0.50;;;7.10;99.90;;;;;;6277508;22;20851;-81
2023/01/11 01:23:55;;;;;;;0.93;0.55;;;7.10;99.90;;;;;;6279906;22;20174;-79
2023/01/11 01:26:22;;;;;;;1.95;0.93;;;7.10;99.90;;;;;;6277522;22;20158;-82
2023/01/11 01:28:49;;;;;;;3.90;0.95;;;7.10;99.90;;;;;;6271593;22;20724;-79
2023/01/11 01:31:15;;;;;;;0.50;0.45;;;7.10;99.90;;;;;;6273825;22;20144;-80
2023/01/11 01:33:41;;;;;;;4.47;1.63;;;7.10;99.90;;;;;;6274710;22;20245;-79
2023/01/11 01:36:06;;;;;;;2.80;0.70;;;7.00;99.90;;;;;;6272605;22;20143;-81
2023/01/11 01:38:33;;;;;;;5.20;1.07;;;7.10;99.90;;;;;;6275593;22;20151;-82
2023/01/11 01:40:58;;;;;;;1.67;1.15;;;7.10;99.90;;;;;;6272125;22;20394;-76
2023/01/11 01:43:46;;;;;;;2.37;2.17;;;7.20;99.90;;;;;;6271680;22;20192;-81
2023/01/11 01:46:12;;;;;;;0.95;0.75;;;7.20;99.90;;;;;;6275176;22;20136;-81
2023/01/11 01:48:40;;;;;;;7.90;0.90;;;7.20;99.90;;;;;;6277533;22;20181;-78
2023/01/11 01:51:08;;;;;;;3.13;0.60;;;7.20;99.90;;;;;;6274447;22;20140;-79
2023/01/11 01:53:39;;;;;;;2.10;1.25;;;7.20;99.90;;;;;;6277317;22;20237;-80
2023/01/11 01:56:10;;;;;;;0.60;0.60;;;7.20;99.90;;;;;;6277018;22;20215;-81
2023/01/11 01:58:40;;;;;;;2.05;1.85;;;7.20;99.90;;;;;;6278675;22;20163;-80
2023/01/11 02:03:51;;;;;;;0.75;0.60;;;7.10;99.90;;;;;;6269545;22;20798;-80
2023/01/11 02:06:21;;;;;;;1.25;0.90;;;7.10;99.90;;;;;;6272085;22;20139;-81
2023/01/11 02:08:55;;;;;;;1.65;0.65;;;7.10;99.90;;;;;;6273017;22;20170;-80
2023/01/11 02:11:30;;;;;;;1.33;0.70;;;7.10;99.90;;;;;;6274730;22;20124;-82
2023/01/11 02:13:58;;;;;;;0.73;0.50;;;7.10;99.90;;;;;;6271284;22;20147;-81
2023/01/11 02:16:24;;;;;;;2.78;0.80;;;7.10;99.90;;;;;;6273437;22;20773;-82
2023/01/11 02:18:50;;;;;;;1.57;0.50;;;7.10;99.90;;;;;;6273175;22;20208;-80
2023/01/11 02:21:20;;;;;;;1.43;0.67;;;7.20;99.90;;;;;;6273017;22;20383;-80
2023/01/11 02:24:35;;;;;;;1.63;0.80;;;7.10;99.90;;;;;;6274275;22;20176;-78
2023/01/11 02:27:27;;;;;;;1.00;0.70;;;7.30;99.90;;;;;;6274778;22;20129;-85
2023/01/11 02:30:41;;;;;;;0.65;0.50;;;7.20;99.90;;;;;;6274587;22;20413;-82
2023/01/11 02:33:17;;;;;;;0.93;0.45;;;7.20;99.90;;;;;;6207455;22;20186;-81
2023/01/11 02:36:05;;;;;;;0.52;0.50;;;7.20;99.90;;;;;;6272992;22;20187;-82
2023/01/11 02:38:46;;;;;;;1.85;0.77;;;7.20;99.90;;;;;;6273585;22;20805;-82
2023/01/11 02:41:20;;;;;;;0.70;0.45;;;7.20;99.90;;;;;;6273037;22;20144;-82
2023/01/11 02:47:17;;;;;;;1.23;0.65;;;7.30;99.90;;;;;;6256656;22;20151;-79
2023/01/11 02:50:21;;;;;;;0.70;0.70;;;7.30;99.90;;;;;;6275193;22;20174;-79
2023/01/11 02:53:08;;;;;;;1.40;0.65;;;7.30;99.90;;;;;;6148865;23;20190;-77
2023/01/11 02:55:41;;;;;;;0.60;0.45;;;7.40;99.90;;;;;;6290338;22;20154;-79
2023/01/11 02:58:10;;;;;;;2.60;1.35;;;7.40;99.90;;;;;;6275649;22;20128;-82
2023/01/11 03:00:38;;;;;;;0.63;0.40;;;7.40;99.90;;;;;;6271376;22;20167;-81
2023/01/11 03:03:17;;;;;;;0.82;0.57;;;7.40;99.90;;;;;;6271865;22;20179;-79
2023/01/11 03:05:50;;;;;;;2.38;0.55;;;7.50;99.90;;;;;;6272088;22;20136;-81
2023/01/11 03:08:43;;;;;;;2.67;0.65;;;7.60;99.90;;;;;;6274720;22;20143;-80
2023/01/11 03:14:42;;;;;;;3.72;0.80;;;7.60;99.90;;;;;;6275711;22;20159;-81
2023/01/11 03:17:29;;;;;;;1.48;0.70;;;7.60;99.90;;;;;;6277094;22;20136;-82
2023/01/11 03:20:08;;;;;;;0.90;0.50;;;7.60;99.90;;;;;;6277013;22;20637;-82
2023/01/11 03:22:43;;;;;;;1.52;0.55;;;7.60;99.90;;;;;;6275927;22;20153;-83
2023/01/11 03:25:23;;;;;;;3.15;0.60;;;7.60;99.90;;;;;;6276084;22;20135;-80
2023/01/11 03:28:04;;;;;;;0.80;0.50;;;7.50;99.90;;;;;;6277515;22;20155;-83
2023/01/11 03:30:45;;;;;;;1.30;0.52;;;7.60;99.90;;;;;;6276418;22;20171;-81
2023/01/11 03:33:29;;;;;;;0.82;0.60;;;7.60;99.90;;;;;;6277329;22;20140;-80
2023/01/11 03:36:03;;;;;;;2.05;0.60;;;7.50;99.90;;;;;;6276480;22;20485;-78
2023/01/11 03:38:43;;;;;;;0.95;0.63;;;7.60;99.90;;;;;;6276118;22;20646;-80
2023/01/11 03:41:17;;;;;;;1.63;0.90;;;7.60;99.90;;;;;;6276601;22;20158;-81
2023/01/11 03:43:45;;;;;;;1.00;0.60;;;7.60;99.90;;;;;;6276960;22;20279;-83
2023/01/11 03:46:22;;;;;;;1.67;0.98;;;7.60;99.90;;;;;;6276180;22;20648;-81
2023/01/11 03:48:56;;;;;;;5.90;1.02;;;7.60;99.90;;;;;;6275552;22;20718;-82
2023/01/11 03:51:28;;;;;;;1.50;0.88;;;7.60;99.90;;;;;;6273974;22;20143;-81
2023/01/11 03:53:58;;;;;;;2.45;0.60;;;7.70;99.90;;;;;;6274847;22;20227;-82
2023/01/11 03:56:34;;;;;;;1.30;0.32;;;7.80;99.90;;;;;;6273636;22;20147;-82
2023/01/11 03:59:00;;;;;;;1.30;0.60;;;7.80;99.90;;;;;;6277507;22;20172;-81
2023/01/11 04:01:26;;;;;;;0.70;0.40;;;7.90;99.90;;;;;;6275668;22;20221;-79
2023/01/11 04:03:51;;;;;;;1.63;0.50;;;7.80;99.90;;;;;;6279234;22;20421;-79
2023/01/11 04:06:18;;;;;;;0.57;0.47;;;7.90;99.90;;;;;;6278208;22;20152;-79
2023/01/11 04:08:43;;;;;;;1.88;0.40;;;7.80;99.90;;;;;;6279999;22;20236;-81
2023/01/11 04:11:09;;;;;;;0.70;0.67;;;7.80;99.90;;;;;;6279054;22;20137;-80
2023/01/11 04:13:34;;;;;;;2.63;0.53;;;7.80;99.90;;;;;;6279992;22;20476;-81
2023/01/11 04:16:00;;;;;;;0.40;0.40;;;7.80;99.90;;;;;;6278375;22;20152;-82
2023/01/11 04:18:25;;;;;;;0.87;0.57;;;7.80;99.90;;;;;;6281349;22;20147;-83
2023/01/11 04:20:51;;;;;;;1.00;0.47;;;7.90;99.90;;;;;;6277346;22;20163;-83
2023/01/11 04:23:16;;;;;;;1.20;0.50;;;8.00;99.90;;;;;;6278710;22;20168;-82
2023/01/11 04:25:42;;;;;;;1.30;0.83;;;7.90;99.90;;;;;;6277640;22;20152;-80
2023/01/11 04:28:08;;;;;;;1.83;0.43;;;7.90;99.90;;;;;;6278065;22;20147;-82
2023/01/11 04:30:34;;;;;;;0.93;0.60;;;7.90;99.90;;;;;;6272850;22;20171;-79
2023/01/11 04:33:00;;;;;;;1.00;0.60;;;7.90;99.90;;;;;;6274108;22;20147;-78
2023/01/11 04:35:26;;;;;;;0.50;0.40;;;7.80;99.90;;;;;;6273335;22;20247;-84
2023/01/11 04:37:58;;;;;;;2.23;1.00;;;7.90;99.90;;;;;;6273132;22;20148;-82
2023/01/11 04:40:24;;;;;;;0.90;0.60;;;7.90;99.90;;;;;;6268666;22;20396;-77
2023/01/11 04:42:50;;;;;;;0.70;0.60;;;7.90;99.90;;;;;;6268457;22;20165;-81
2023/01/11 04:45:15;;;;;;;1.87;0.80;;;7.80;99.90;;;;;;6270392;22;20223;-80
2023/01/11 04:47:41;;;;;;;1.83;0.63;;;7.80;99.90;;;;;;6270521;22;20264;-81
2023/01/11 04:50:07;;;;;;;0.50;0.50;;;7.80;99.90;;;;;;6272543;22;20190;-80
2023/01/11 04:52:33;;;;;;;1.67;0.73;;;7.90;99.90;;;;;;6271565;22;20199;-83
2023/01/11 04:54:59;;;;;;;3.27;1.10;;;8.70;99.90;;;;;;6283867;22;20174;-82
2023/01/11 04:57:24;;;;;;;1.37;0.50;;;8.00;99.90;;;;;;6269270;22;20381;-84
2023/01/11 04:59:50;;;;;;;0.80;0.50;;;8.10;99.90;;;;;;6269216;22;20760;-84
2023/01/11 05:02:16;;;;;;;1.73;0.70;;;8.10;99.90;;;;;;6267471;22;20294;-84
2023/01/11 05:04:41;;;;;;;1.03;0.50;;;8.10;99.90;;;;;;6274088;22;20203;-85
2023/01/11 05:07:08;;;;;;;1.73;1.00;;;8.10;99.90;;;;;;6277735;22;20576;-84
2023/01/11 05:09:33;;;;;;;2.28;0.70;;;8.00;99.90;;;;;;6277413;22;20152;-84
2023/01/11 05:11:59;;;;;;;1.43;0.67;;;8.10;99.90;;;;;;6275288;22;20223;-84
2023/01/11 05:14:24;;;;;;;2.73;0.60;;;8.00;99.90;;;;;;6276679;22;20190;-82
2023/01/11 05:16:50;;;;;;;2.87;0.63;;;8.00;99.90;;;;;;6272963;22;20159;-83
2023/01/11 05:19:16;;;;;;;1.37;0.50;;;8.10;99.90;;;;;;6274180;22;20477;-85
2023/01/11 05:21:41;;;;;;;0.73;0.50;;;8.00;99.90;;;;;;6276950;22;20179;-84
2023/01/11 05:24:12;;;;;;;0.40;0.33;;;7.90;99.90;;;;;;6277061;22;20227;-84
2023/01/11 05:26:40;;;;;;;1.10;0.40;;;7.90;99.90;;;;;;6278843;22;20136;-86
2023/01/11 05:29:08;;;;;;;0.75;0.75;;;7.80;99.90;;;;;;6275557;22;20606;-85
2023/01/11 05:31:36;;;;;;;1.13;0.50;;;7.90;99.90;;;;;;6268728;22;20170;-85
2023/01/11 05:34:01;;;;;;;4.63;0.60;;;7.80;99.90;;;;;;6281415;22;20140;-84
2023/01/11 05:36:27;;;;;;;0.50;0.30;;;7.80;99.90;;;;;;6283356;22;20162;-84
2023/01/11 05:38:55;;;;;;;1.47;0.60;;;7.90;99.90;;;;;;6270397;22;20155;-84
2023/01/11 05:41:22;;;;;;;1.13;0.60;;;7.80;99.90;;;;;;6267663;22;20583;-83
2023/01/11 05:46:36;;;;;;;0.57;0.57;;;7.80;99.90;;;;;;6290951;22;20266;-83
2023/01/11 05:49:02;;;;;;;0.60;0.40;;;7.80;99.90;;;;;;6272464;22;20169;-84
2023/01/11 05:51:29;;;;;;;0.63;0.40;;;7.80;99.90;;;;;;6271834;22;20198;-85
2023/01/11 05:53:59;;;;;;;1.70;0.43;;;7.80;99.90;;;;;;6275321;22;20150;-86
2023/01/11 05:56:25;;;;;;;0.50;0.30;;;7.70;99.90;;;;;;6277469;22;20198;-84
2023/01/11 05:58:51;;;;;;;0.82;0.52;;;7.60;99.90;;;;;;6293861;22;20129;-84
2023/01/11 06:01:18;;;;;;;1.57;0.50;;;7.70;99.90;;;;;;6273523;22;20187;-84
2023/01/11 06:03:45;;;;;;;0.40;0.30;;;7.70;99.90;;;;;;6270198;22;20175;-84
2023/01/11 06:06:11;;;;;;;2.58;0.68;;;7.70;99.90;;;;;;6270389;22;20128;-84
2023/01/11 06:08:37;;;;;;;0.90;0.50;;;7.60;99.90;;;;;;6270931;22;20136;-85
2023/01/11 06:11:03;;;;;;;0.43;0.43;;;7.60;99.90;;;;;;6264950;22;20174;-85
2023/01/11 06:13:29;;;;;;;0.70;0.40;;;7.60;99.90;;;;;;6267980;22;20182;-83
2023/01/11 06:16:08;;;;;;;0.70;0.40;;;7.60;99.90;;;;;;6270034;22;20482;-84
2023/01/11 06:18:36;;;;;;;1.02;0.45;;;7.50;99.90;;;;;;6267236;22;20159;-84
2023/01/11 06:21:03;;;;;;;0.93;0.68;;;7.50;99.90;;;;;;6270515;22;20271;-84
2023/01/11 06:23:32;;;;;;;0.63;0.50;;;7.50;99.90;;;;;;6282547;22;20571;-84
2023/01/11 06:26:02;;;;;;;5.85;3.70;;;7.60;99.90;;;;;;6284532;22;20157;-84
2023/01/11 06:28:28;;;;;;;1.05;0.65;;;7.70;99.90;;;;;;6275367;22;20148;-84
2023/01/11 06:30:55;;;;;;;1.97;0.60;;;7.70;99.90;;;;;;6273808;22;20724;-85
2023/01/11 06:33:22;;;;;;;0.50;0.38;;;7.70;99.90;;;;;;6277045;22;20173;-84
2023/01/11 06:35:48;;;;;;;0.40;0.40;;;7.70;99.90;;;;;;6275373;22;20148;-85
2023/01/11 06:38:15;;;;;;;1.37;0.60;;;7.60;99.90;;;;;;6271200;22;20224;-83
2023/01/11 06:40:41;;;;;;;1.85;0.70;;;7.60;99.90;;;;;;6271679;22;20700;-87
2023/01/11 06:43:08;;;;;;;0.50;0.50;;;7.60;99.90;;;;;;6273499;22;20160;-85
2023/01/11 06:45:38;;;;;;;0.98;0.40;;;7.60;99.90;;;;;;6275918;22;20148;-85
2023/01/11 06:48:04;;;;;;;1.02;0.77;;;7.60;99.90;;;;;;6269668;22;20170;-85
2023/01/11 06:50:30;;;;;;;0.73;0.40;;;7.50;99.90;;;;;;6268970;22;20282;-85
2023/01/11 06:52:58;;;;;;;0.50;0.50;;;7.50;99.90;;;;;;6266782;22;20167;-83
2023/01/11 06:55:26;;;;;;;0.50;0.40;;;7.50;99.90;;;;;;6267423;22;20739;-84
2023/01/11 06:57:52;;;;;;;1.90;0.50;;;7.60;99.90;;;;;;6290888;22;20147;-84
2023/01/11 07:00:18;;;;;;;3.27;0.60;;;7.50;99.90;;;;;;6281017;22;20155;-85
2023/01/11 07:02:45;;;;;;;0.50;0.40;;;7.50;99.90;;;;;;6281795;22;20370;-82
2023/01/11 07:05:11;;;;;;;5.85;0.60;;;7.60;99.90;;;;;;6283589;22;20171;-84
2023/01/11 07:07:38;;;;;;;0.75;0.40;;;7.60;99.90;;;;;;6273895;22;20201;-84
2023/01/11 07:10:06;;;;;;;0.70;0.40;;;7.70;99.90;;;;;;6272876;22;20156;-83
2023/01/11 07:12:32;;;;;;;1.25;0.68;;;7.70;99.90;;;;;;6271381;22;20143;-82
2023/01/11 07:14:58;;;;;;;2.88;0.50;;;7.80;99.90;;;;;;6267786;22;20159;-83
2023/01/11 07:17:24;;;;;;;0.40;0.30;;;7.80;99.90;;;;;;6270816;22;20144;-84
2023/01/11 07:19:49;;;;;;;0.70;0.70;;;7.90;99.90;;;;;;6271967;22;20526;-84
2023/01/11 07:22:15;;;;;;;0.50;0.50;;;8.10;99.90;;;;;;6271107;22;20172;-84
2023/01/11 07:24:40;;;;;;;0.60;0.30;;;8.10;99.90;;;;;;6272981;22;20218;-85
2023/01/11 07:27:06;;;;;;;1.80;0.53;;;8.10;99.90;;;;;;6271768;22;20148;-85
2023/01/11 07:29:31;;;;;;;0.90;0.40;;;8.10;99.90;;;;;;6269473;22;20173;-85
2023/01/11 07:31:57;;;;;;;0.50;0.50;;;8.20;99.90;;;;;;6271600;22;20210;-86
2023/01/11 07:34:22;;;;;;;0.40;0.30;;;8.30;99.90;;;;;;6271488;22;20155;-85
2023/01/11 07:36:48;;;;;;;1.23;0.60;;;8.40;99.90;;;;;;6271062;22;20163;-83
2023/01/11 07:39:14;;;;;;;1.60;0.70;;;8.40;99.90;;;;;;6272235;22;20159;-84
2023/01/11 07:44:23;;;;;;;0.52;0.40;;;8.40;99.90;;;;;;6282113;22;20178;-84
2023/01/11 07:46:49;;;;;;;4.33;0.60;;;8.40;99.90;;;;;;6277037;22;20160;-82
2023/01/11 07:49:14;;;;;;;1.13;0.37;;;8.40;99.90;;;;;;6267418;22;20152;-83
2023/01/11 07:51:40;;;;;;;2.93;0.53;;;8.50;99.90;;;;;;6271108;22;20270;-83
2023/01/11 07:54:05;;;;;;;0.87;0.63;;;8.50;99.90;;;;;;6267075;22;20163;-85
2023/01/11 07:56:31;;;;;;;2.93;0.57;;;8.60;99.90;;;;;;6269486;22;20440;-84
2023/01/11 07:58:57;;;;;;;1.27;0.50;;;8.70;99.90;;;;;;6270612;22;20209;-85
2023/01/11 08:01:23;;;;;;;1.00;0.57;;;8.70;99.90;;;;;;6269546;22;20237;-83
2023/01/11 08:03:49;;;;;;;0.40;0.40;;;8.80;99.90;;;;;;6272372;22;20421;-83
2023/01/11 08:06:15;;;;;;;0.60;0.50;;;8.80;99.90;;;;;;6270099;22;20152;-85
2023/01/11 08:08:42;;;;;;;0.40;0.30;;;8.90;99.90;;;;;;6270849;22;20379;-84
2023/01/11 08:16:37;;;;;;;1.52;0.45;;;9.10;99.90;;;;;;6274157;22;20143;-85
2023/01/11 08:19:03;;;;;;;1.47;0.30;;;9.10;99.90;;;;;;6276707;22;20155;-83
2023/01/11 08:21:29;;;;;;;2.55;0.70;;;9.20;99.90;;;;;;6294397;22;20183;-85
2023/01/11 08:23:55;;;;;;;4.30;0.50;;;9.20;99.90;;;;;;6293514;22;20176;-82
2023/01/11 08:26:22;;;;;;;0.68;0.47;;;9.20;99.90;;;;;;6280484;22;20243;-85
2023/01/11 08:28:48;;;;;;;0.50;0.50;;;9.20;99.90;;;;;;6278339;22;20591;-82
2023/01/11 08:31:14;;;;;;;2.53;0.77;;;9.20;99.90;;;;;;6276145;22;20202;-85
2023/01/11 08:33:39;;;;;;;1.00;0.67;;;9.30;99.90;;;;;;6278185;22;20164;-86
2023/01/11 08:36:06;;;;;;;0.73;0.47;;;9.30;99.90;;;;;;6275058;22;20156;-84
2023/01/11 08:38:32;;;;;;;1.20;0.50;;;9.40;99.90;;;;;;6276737;22;20166;-86
2023/01/11 08:40:58;;;;;;;0.70;0.70;;;9.40;99.90;;;;;;6277570;22;20176;-85
2023/01/11 08:43:23;;;;;;;1.67;0.40;;;9.40;99.90;;;;;;6276385;22;20594;-85
2023/01/11 08:45:50;;;;;;;0.87;0.50;;;9.50;99.90;;;;;;6277066;22;20206;-84
2023/01/11 08:48:15;;;;;;;3.90;3.50;;;9.50;99.90;;;;;;6274002;22;20156;-87
2023/01/11 08:50:42;;;;;;;1.00;0.80;;;9.50;99.90;;;;;;6275284;22;20160;-82
2023/01/11 08:53:08;;;;;;;0.90;0.80;;;9.60;99.90;;;;;;6274667;22;20633;-87
2023/01/11 08:55:33;;;;;;;0.83;0.60;;;9.50;99.90;;;;;;6275847;22;20148;-84
2023/01/11 08:57:59;;;;;;;0.50;0.40;;;9.60;99.90;;;;;;6271148;22;20148;-83
2023/01/11 09:00:24;;;;;;;4.00;0.70;;;9.60;99.90;;;;;;6286018;22;20180;-83
2023/01/11 09:02:50;;;;;;;2.63;1.33;;;9.60;99.90;;;;;;6265383;22;20684;-83
2023/01/11 09:05:16;;;;;;;1.57;1.10;;;9.70;99.90;;;;;;6265673;22;20227;-85
2023/01/11 09:07:41;;;;;;;1.10;1.00;;;9.80;99.90;;;;;;6267560;22;20151;-84
2023/01/11 09:10:07;;;;;;;0.60;0.40;;;9.80;99.90;;;;;;6267114;22;20156;-84
2023/01/11 09:12:33;;;;;;;5.35;0.65;;;9.80;99.90;;;;;;6267409;22;20155;-84
2023/01/11 09:14:59;;;;;;;1.07;0.70;;;9.70;99.90;;;;;;6270082;22;20155;-85
2023/01/11 09:17:25;;;;;;;2.45;0.82;;;9.70;99.90;;;;;;6270075;22;20140;-83
2023/01/11 09:19:50;;;;;;;1.10;0.60;;;9.70;99.90;;;;;;6267233;22;20146;-84
2023/01/11 09:22:16;;;;;;;1.27;0.53;;;9.70;99.90;;;;;;6262391;22;20182;-84
2023/01/11 09:24:41;;;;;;;0.57;0.50;;;9.60;99.90;;;;;;6266493;22;20255;-84
2023/01/11 09:27:07;;;;;;;0.57;0.57;;;9.60;99.90;;;;;;6264726;22;20553;-84
2023/01/11 09:29:33;;;;;;;0.93;0.50;;;9.40;99.90;;;;;;6266574;22;20144;-86
2023/01/11 09:31:58;;;;;;;1.07;0.60;;;9.40;99.90;;;;;;6260830;22;20175;-86
2023/01/11 09:34:26;;;;;;;4.70;4.17;;;9.30;99.90;;;;;;6265901;22;20782;-83
2023/01/11 09:36:52;;;;;;;2.67;2.45;;;9.30;99.90;;;;;;6277986;22;20128;-83
2023/01/11 09:39:21;;;;;;;1.40;1.30;;;9.20;99.90;;;;;;6283596;22;20197;-84
2023/01/11 09:42:04;;;;;;;1.33;1.20;;;9.30;99.90;;;;;;6274643;22;20194;-83
2023/01/11 09:44:31;;;;;;;3.20;1.52;;;9.30;99.90;;;;;;6279850;22;20195;-85
2023/01/11 09:47:18;;;;;;;2.88;2.67;;;9.30;99.90;;;;;;6267310;22;20162;-84
2023/01/11 09:49:53;;;;;;;2.08;1.88;;;9.40;99.90;;;;;;6286242;22;20136;-84
2023/01/11 09:52:39;;;;;;;1.70;1.25;;;9.40;99.90;;;;;;6272886;22;20190;-87
2023/01/11 09:55:10;;;;;;;0.80;0.80;;;9.40;99.90;;;;;;6266585;22;20190;-86
2023/01/11 09:58:04;;;;;;;2.15;0.50;;;9.50;99.90;;;;;;6268421;22;20189;-84
2023/01/11 10:00:51;;;;;;;1.83;0.75;;;9.50;99.90;;;;;;6266199;22;20167;-83
2023/01/11 10:03:28;;;;;;;0.60;0.60;;;9.60;99.90;;;;;;6267056;22;20175;-85
2023/01/11 10:06:32;;;;;;;1.67;0.60;;;9.60;99.90;;;;;;6264877;22;20158;-83
2023/01/11 10:09:12;;;;;;;1.77;1.02;;;9.60;99.90;;;;;;6266352;22;20489;-85
2023/01/11 10:12:12;;;;;;;0.50;0.45;;;9.70;99.90;;;;;;6268339;22;20340;-85
2023/01/11 10:15:04;;;;;;;2.30;1.50;;;9.60;99.90;;;;;;6282479;22;20144;-84
2023/01/11 10:18:01;;;;;;;1.15;0.80;;;9.70;99.90;;;;;;6264771;22;20148;-85
2023/01/11 10:20:34;;;;;;;2.60;0.75;;;9.60;99.90;;;;;;6265774;22;20175;-85
2023/01/11 10:23:05;;;;;;;0.57;0.57;;;9.60;99.90;;;;;;6266936;22;20147;-83
2023/01/11 10:25:40;;;;;;;1.40;0.45;;;9.60;99.90;;;;;;6265798;22;20171;-84
2023/01/11 10:28:41;;;;;;;1.50;1.00;;;9.70;99.90;;;;;;6266722;22;20142;-84
2023/01/11 10:31:29;;;;;;;1.95;0.93;;;9.60;99.90;;;;;;6256019;22;20191;-85
2023/01/11 10:40:09;;;;;;;1.75;1.08;;;9.60;99.90;;;;;;6266814;22;20151;-84
2023/01/11 10:42:55;;;;;;;0.50;0.50;;;9.60;99.90;;;;;;6267739;22;20154;-83
2023/01/11 10:45:28;;;;;;;1.38;0.95;;;9.60;99.90;;;;;;6263134;22;20136;-85
2023/01/11 10:48:09;;;;;;;2.08;1.10;;;9.60;99.90;;;;;;6269183;22;20583;-84
2023/01/11 10:50:52;;;;;;;1.00;0.90;;;9.50;99.90;;;;;;6268106;22;20168;-83
2023/01/11 10:53:33;;;;;;;1.85;1.40;;;9.50;99.90;;;;;;6269189;22;20140;-83
2023/01/11 10:56:20;;;;;;;1.13;0.50;;;9.60;99.90;;;;;;6271746;22;20142;-85
2023/01/11 10:58:59;;;;;;;0.85;0.60;;;9.60;99.90;;;;;;6280424;22;20159;-84
2023/01/11 11:01:39;;;;;;;0.85;0.68;;;9.50;99.90;;;;;;6270210;22;20180;-84
2023/01/11 11:04:43;;;;;;;0.95;0.60;;;9.60;99.90;;;;;;6270028;22;20178;-85
2023/01/11 11:07:16;;;;;;;4.22;0.68;;;9.70;99.90;;;;;;6269242;22;20334;-83
2023/01/11 11:09:59;;;;;;;2.45;0.90;;;9.60;99.90;;;;;;6269347;22;20135;-83
2023/01/11 11:12:32;;;;;;;1.60;0.77;;;9.60;99.90;;;;;;6266680;22;20207;-85
2023/01/11 11:15:12;;;;;;;0.52;0.50;;;9.60;99.90;;;;;;6267671;22;20156;-84
2023/01/11 11:17:43;;;;;;;0.85;0.75;;;9.60;99.90;;;;;;6263751;22;20144;-82
2023/01/11 11:20:21;;;;;;;0.60;0.60;;;9.70;99.90;;;;;;6273551;22;20201;-83
2023/01/11 11:22:55;;;;;;;0.65;0.47;;;9.80;99.90;;;;;;6271129;22;20144;-85
2023/01/11 11:25:28;;;;;;;2.40;0.68;;;9.90;99.90;;;;;;6266382;22;20159;-85
2023/01/11 11:28:13;;;;;;;0.88;0.55;;;9.90;99.90;;;;;;6267032;22;20144;-84
2023/01/11 11:30:42;;;;;;;1.13;0.60;;;9.90;99.90;;;;;;6282307;22;20898;-83
2023/01/11 11:33:19;;;;;;;0.65;0.43;;;9.90;99.90;;;;;;6265148;22;20156;-82
2023/01/11 11:35:55;;;;;;;1.48;0.68;;;10.00;99.90;;;;;;6265270;22;20147;-84
2023/01/11 11:38:28;;;;;;;0.95;0.75;;;10.20;99.90;;;;;;6264468;22;20143;-84
2023/01/11 11:41:03;;;;;;;0.70;0.60;;;10.20;99.90;;;;;;6267000;22;20896;-84
2023/01/11 11:43:31;;;;;;;4.60;0.60;;;10.30;99.90;;;;;;6265239;22;20167;-82
2023/01/11 11:46:00;;;;;;;1.63;0.50;;;10.30;99.90;;;;;;6264427;22;20160;-84
2023/01/11 11:48:28;;;;;;;1.25;0.85;;;10.40;99.90;;;;;;6268849;22;20156;-85
2023/01/11 11:50:56;;;;;;;1.13;0.70;;;10.50;99.90;;;;;;6266551;22;20176;-84
2023/01/11 11:53:33;;;;;;;0.75;0.60;;;10.50;99.90;;;;;;6268655;22;20175;-84
2023/01/11 11:56:05;;;;;;;1.10;1.00;;;10.50;99.90;;;;;;6266839;22;20655;-82
2023/01/11 11:58:30;;;;;;;0.70;0.50;;;10.50;99.90;;;;;;6267377;22;20144;-83
2023/01/11 12:00:56;;;;;;;0.93;0.77;;;10.50;99.90;;;;;;6269514;22;20175;-85
2023/01/11 12:03:27;;;;;;;1.23;0.50;;;10.40;99.90;;;;;;6265795;22;20194;-84
2023/01/11 12:06:00;;;;;;;0.50;0.40;;;10.40;99.90;;;;;;6268150;22;20194;-83
2023/01/11 12:08:28;;;;;;;0.55;0.40;;;10.40;99.90;;;;;;6269249;22;20167;-82
2023/01/11 12:10:58;;;;;;;2.45;0.60;;;10.40;99.90;;;;;;6272499;22;20271;-82
2023/01/11 12:13:27;;;;;;;0.50;0.50;;;10.40;99.90;;;;;;6294802;22;20144;-81
2023/01/11 12:15:57;;;;;;;1.75;0.55;;;10.50;99.90;;;;;;6276201;22;20180;-82
2023/01/11 12:18:24;;;;;;;0.95;0.50;;;10.50;99.90;;;;;;6270043;22;20148;-83
2023/01/11 12:20:50;;;;;;;1.48;0.80;;;10.60;99.90;;;;;;6271481;22;20218;-83
2023/01/11 12:23:17;;;;;;;1.03;0.57;;;10.60;99.90;;;;;;6274615;22;20484;-85
2023/01/11 12:26:01;;;;;;;3.70;1.60;;;10.60;99.90;;;;;;6271775;22;20246;-85
2023/01/11 12:28:45;;;;;;;1.67;1.00;;;10.60;99.90;;;;;;6269742;22;20681;-82
2023/01/11 12:31:35;;;;;;;1.67;1.10;;;10.40;99.90;;;;;;6273373;22;20630;-83
2023/01/11 12:34:26;;;;;;;0.85;0.80;;;10.40;99.90;;;;;;6271801;22;20253;-84
2023/01/11 12:37:10;;;;;;;0.38;0.30;;;10.30;99.90;;;;;;6273618;22;20144;-82
2023/01/11 12:39:51;;;;;;;0.88;0.57;;;10.30;99.90;;;;;;6274489;22;20178;-82
2023/01/11 12:42:36;;;;;;;0.85;0.80;;;10.30;99.90;;;;;;6273098;22;20197;-83
2023/01/11 12:45:22;;;;;;;0.77;0.77;;;10.30;99.90;;;;;;6283918;22;20175;-84
2023/01/11 12:48:09;;;;;;;1.25;0.50;;;10.30;99.90;;;;;;6274929;22;20144;-83
2023/01/11 12:51:03;;;;;;;0.90;0.77;;;10.30;99.90;;;;;;6273862;22;20255;-84
2023/01/11 12:54:06;;;;;;;0.95;0.90;;;10.20;99.90;;;;;;6274136;22;20255;-83
2023/01/11 12:56:59;;;;;;;0.50;0.50;;;10.30;99.90;;;;;;6274709;22;20625;-83
2023/01/11 12:59:51;;;;;;;0.95;0.73;;;10.20;99.90;;;;;;6273230;22;20136;-83
2023/01/11 13:02:43;;;;;;;0.93;0.80;;;10.30;99.90;;;;;;6271701;22;20167;-82
2023/01/11 13:05:22;;;;;;;0.50;0.35;;;10.20;99.90;;;;;;6269909;22;20159;-82
2023/01/11 13:08:03;;;;;;;0.98;0.88;;;10.20;99.90;;;;;;6268669;22;20220;-83
2023/01/11 13:10:31;;;;;;;0.60;0.40;;;10.20;99.90;;;;;;6271459;22;20167;-84
2023/01/11 13:13:05;;;;;;;0.40;0.40;;;10.10;99.90;;;;;;6272522;22;20243;-82
2023/01/11 13:15:52;;;;;;;0.40;0.30;;;10.10;99.90;;;;;;6273744;22;20135;-86
2023/01/11 13:18:39;;;;;;;0.80;0.40;;;10.10;99.90;;;;;;6270278;22;20566;-82
2023/01/11 13:21:31;;;;;;;0.57;0.40;;;10.10;99.90;;;;;;6270820;22;20171;-85
2023/01/11 13:24:28;;;;;;;0.65;0.50;;;10.00;99.90;;;;;;6272350;22;20172;-83
2023/01/11 13:27:01;;;;;;;0.68;0.40;;;10.00;99.90;;;;;;6268689;22;20151;-85
2023/01/11 13:29:36;;;;;;;1.10;0.43;;;9.90;99.90;;;;;;6288322;22;20174;-81
2023/01/11 13:32:05;;;;;;;0.40;0.40;;;9.90;99.90;;;;;;6274221;22;20176;-85
2023/01/11 13:34:39;;;;;;;0.40;0.30;;;9.80;99.90;;;;;;6272281;22;20625;-84
2023/01/11 13:37:14;;;;;;;1.05;0.95;;;9.80;99.90;;;;;;6281181;22;20174;-82
2023/01/11 13:40:02;;;;;;;0.90;0.90;;;9.80;99.90;;;;;;6279218;22;20155;-84
2023/01/11 13:42:37;;;;;;;0.40;0.40;;;9.80;99.90;;;;;;6273731;22;20600;-85
2023/01/11 13:45:16;;;;;;;1.55;0.55;;;9.70;99.90;;;;;;6271161;22;20190;-85
2023/01/11 13:47:54;;;;;;;1.00;0.73;;;9.80;99.90;;;;;;6271693;22;20139;-83
2023/01/11 13:50:26;;;;;;;1.10;0.60;;;9.80;99.90;;;;;;6272692;22;20144;-84
2023/01/11 13:53:13;;;;;;;1.60;1.50;;;9.80;99.90;;;;;;6269904;22;20164;-84
2023/01/11 13:55:39;;;;;;;0.70;0.70;;;9.90;99.90;;;;;;6269537;22;20140;-84